createdAt,value
2018-05-04T00:00:54.174Z,100779.02
2018-05-04T00:01:59.708Z,100775.17
2018-05-04T00:03:05.459Z,100776.09
2018-05-04T00:04:11.214Z,100773.53
2018-05-04T00:05:17.010Z,100782.76
2018-05-04T00:06:23.534Z,100775.92
2018-05-04T00:07:29.303Z,100779.83
2018-05-04T00:08:35.055Z,100776.39
2018-05-04T00:09:41.572Z,100777.70
2018-05-04T00:10:47.355Z,100773.82
2018-05-04T00:11:53.872Z,100780.92
2018-05-04T00:12:59.627Z,100777.08
2018-05-04T00:14:06.891Z,100775.40
2018-05-04T00:15:12.647Z,100778.12
2018-05-04T00:16:19.187Z,100778.25
2018-05-04T00:17:24.940Z,100777.89
2018-05-04T00:18:30.697Z,100779.30
2018-05-04T00:19:37.224Z,100784.55
2018-05-04T00:20:42.970Z,100785.02
2018-05-04T00:21:48.747Z,100782.06
2018-05-04T00:22:55.283Z,100786.00
2018-05-04T00:24:01.050Z,100791.65
2018-05-04T00:25:06.468Z,100788.20
2018-05-04T00:26:11.986Z,100788.23
2018-05-04T00:27:17.771Z,100786.52
2018-05-04T00:28:24.348Z,100786.95
2018-05-04T00:29:30.099Z,100787.41
2018-05-04T00:30:35.867Z,100786.62
2018-05-04T00:31:41.624Z,100786.69
2018-05-04T00:32:47.403Z,100788.45
2018-05-04T00:33:53.919Z,100789.44
2018-05-04T00:34:59.680Z,100782.44
2018-05-04T00:36:06.201Z,100777.65
2018-05-04T00:37:11.970Z,100783.42
2018-05-04T00:38:17.755Z,100781.75
2018-05-04T00:39:23.525Z,100783.45
2018-05-04T00:40:29.307Z,100776.89
2018-05-04T00:41:36.568Z,100776.49
2018-05-04T00:42:42.079Z,100776.56
2018-05-04T00:43:47.859Z,100773.53
2018-05-04T00:44:53.614Z,100780.10
2018-05-04T00:46:00.142Z,100779.86
2018-05-04T00:47:05.902Z,100779.53
2018-05-04T00:48:12.429Z,100780.42
2018-05-04T00:49:18.211Z,100786.53
2018-05-04T00:50:23.979Z,100783.97
2018-05-04T00:51:29.756Z,100785.28
2018-05-04T00:52:35.772Z,100791.02
2018-05-04T00:53:58.564Z,100790.13
2018-05-04T00:55:04.343Z,100790.16
2018-05-04T00:56:10.869Z,100795.12
2018-05-04T00:57:16.636Z,100793.31
2018-05-04T00:58:23.172Z,100796.77
2018-05-04T00:59:28.923Z,100797.71
2018-05-04T01:00:34.751Z,100794.53
2018-05-04T01:01:40.507Z,100803.66
2018-05-04T01:02:46.266Z,100798.34
2018-05-04T01:03:52.795Z,100800.97
2018-05-04T01:04:58.545Z,100797.95
2018-05-04T01:06:05.503Z,100800.91
2018-05-04T01:07:11.275Z,100800.97
2018-05-04T01:08:17.032Z,100800.97
2018-05-04T01:09:23.559Z,100801.80
2018-05-04T01:10:29.334Z,100801.44
2018-05-04T01:11:35.118Z,100795.94
2018-05-04T01:12:40.911Z,100802.34
2018-05-04T01:13:47.685Z,100803.60
2018-05-04T01:14:54.213Z,100795.66
2018-05-04T01:16:00.002Z,100796.08
2018-05-04T01:17:05.804Z,100799.90
2018-05-04T01:18:11.575Z,100798.12
2018-05-04T01:19:17.725Z,100804.42
2018-05-04T01:20:23.476Z,100798.38
2018-05-04T01:21:29.230Z,100788.52
2018-05-04T01:22:35.016Z,100800.40
2018-05-04T01:23:40.796Z,100796.49
2018-05-04T01:24:46.542Z,100797.47
2018-05-04T01:25:52.297Z,100799.83
2018-05-04T01:26:58.055Z,100793.20
2018-05-04T01:28:03.855Z,100794.45
2018-05-04T01:29:09.610Z,100796.19
2018-05-04T01:30:15.060Z,100793.11
2018-05-04T01:31:20.813Z,100795.33
2018-05-04T01:32:26.571Z,100795.80
2018-05-04T01:33:32.355Z,100796.16
2018-05-04T01:34:38.114Z,100794.55
2018-05-04T01:35:43.999Z,100794.55
2018-05-04T01:36:49.794Z,100795.77
2018-05-04T01:37:55.646Z,100794.05
2018-05-04T01:39:01.482Z,100794.91
2018-05-04T01:40:07.622Z,100791.42
2018-05-04T01:41:13.379Z,100804.56
2018-05-04T01:42:19.157Z,100794.45
2018-05-04T01:43:24.924Z,100801.78
2018-05-04T01:44:30.752Z,100799.48
2018-05-04T01:45:36.513Z,100798.56
2018-05-04T01:46:43.035Z,100793.67
2018-05-04T01:47:49.288Z,100798.44
2018-05-04T01:48:55.045Z,100795.81
2018-05-04T01:50:00.841Z,100800.05
2018-05-04T01:51:06.596Z,100800.97
2018-05-04T01:52:12.347Z,100802.19
2018-05-04T01:53:18.119Z,100802.16
2018-05-04T01:54:23.886Z,100803.37
2018-05-04T01:55:30.437Z,100804.14
2018-05-04T01:56:36.961Z,100807.22
2018-05-04T01:57:42.706Z,100811.69
2018-05-04T01:58:48.472Z,100802.40
2018-05-04T01:59:54.235Z,100806.47
2018-05-04T02:01:00.791Z,100810.10
2018-05-04T02:02:07.311Z,100813.55
2018-05-04T02:03:13.075Z,100806.69
2018-05-04T02:04:18.822Z,100808.45
2018-05-04T02:05:25.114Z,100807.70
2018-05-04T02:06:30.928Z,100809.01
2018-05-04T02:07:37.463Z,100806.08
2018-05-04T02:08:43.983Z,100806.97
2018-05-04T02:09:49.511Z,100803.82
2018-05-04T02:10:55.263Z,100801.55
2018-05-04T02:12:01.099Z,100805.49
2018-05-04T02:13:06.853Z,100806.78
2018-05-04T02:14:12.610Z,100809.01
2018-05-04T02:15:18.396Z,100808.03
2018-05-04T02:16:24.910Z,100804.15
2018-05-04T02:17:30.686Z,100805.95
2018-05-04T02:18:37.207Z,100807.39
2018-05-04T02:19:42.965Z,100806.53
2018-05-04T02:20:48.727Z,100799.40
2018-05-04T02:21:55.259Z,100799.03
2018-05-04T02:23:01.056Z,100797.33
2018-05-04T02:24:06.810Z,100800.08
2018-05-04T02:25:12.371Z,100804.87
2018-05-04T02:26:18.148Z,100797.97
2018-05-04T02:27:23.899Z,100800.32
2018-05-04T02:28:30.446Z,100801.75
2018-05-04T02:29:36.663Z,100809.27
2018-05-04T02:30:42.193Z,100814.61
2018-05-04T02:31:47.956Z,100818.88
2018-05-04T02:32:53.710Z,100816.28
2018-05-04T02:33:59.488Z,100816.07
2018-05-04T02:35:05.254Z,100811.67
2018-05-04T02:36:11.064Z,100817.23
2018-05-04T02:37:18.096Z,100814.05
2018-05-04T02:38:23.866Z,100809.72
2018-05-04T02:39:30.413Z,100804.31
2018-05-04T02:40:36.182Z,100799.86
2018-05-04T02:41:41.953Z,100802.02
2018-05-04T02:42:47.913Z,100798.88
2018-05-04T02:43:53.667Z,100800.55
2018-05-04T02:44:59.754Z,100803.03
2018-05-04T02:46:06.284Z,100806.45
2018-05-04T02:47:13.348Z,100811.60
2018-05-04T02:48:19.098Z,100813.77
2018-05-04T02:49:24.854Z,100813.74
2018-05-04T02:50:31.133Z,100818.44
2018-05-04T02:51:36.911Z,100818.87
2018-05-04T02:52:42.656Z,100822.88
2018-05-04T02:53:48.410Z,100821.89
2018-05-04T02:54:54.163Z,100818.14
2018-05-04T02:55:59.956Z,100826.87
2018-05-04T02:57:05.710Z,100827.39
2018-05-04T02:58:11.517Z,100824.30
2018-05-04T02:59:17.381Z,100822.54
2018-05-04T03:00:23.139Z,100827.06
2018-05-04T03:01:28.923Z,100826.94
2018-05-04T03:02:34.904Z,100827.79
2018-05-04T03:03:40.668Z,100828.19
2018-05-04T03:04:46.538Z,100825.50
2018-05-04T03:05:52.219Z,100826.72
2018-05-04T03:06:58.763Z,100827.70
2018-05-04T03:08:05.313Z,100829.89
2018-05-04T03:09:11.091Z,100830.33
2018-05-04T03:10:16.849Z,100828.61
2018-05-04T03:11:22.599Z,100825.07
2018-05-04T03:12:28.388Z,100828.48
2018-05-04T03:13:34.155Z,100824.09
2018-05-04T03:14:39.902Z,100825.61
2018-05-04T03:15:45.676Z,100823.72
2018-05-04T03:16:51.479Z,100818.33
2018-05-04T03:17:58.032Z,100823.13
2018-05-04T03:19:04.567Z,100830.03
2018-05-04T03:20:10.347Z,100832.04
2018-05-04T03:21:16.112Z,100836.31
2018-05-04T03:22:21.887Z,100835.73
2018-05-04T03:23:27.672Z,100837.31
2018-05-04T03:24:33.440Z,100841.64
2018-05-04T03:25:38.996Z,100843.78
2018-05-04T03:26:44.748Z,100842.70
2018-05-04T03:27:50.507Z,100839.59
2018-05-04T03:28:57.047Z,100848.72
2018-05-04T03:30:02.804Z,100843.13
2018-05-04T03:31:09.443Z,100843.56
2018-05-04T03:32:15.190Z,100838.64
2018-05-04T03:33:22.461Z,100833.34
2018-05-04T03:34:28.255Z,100835.64
2018-05-04T03:35:34.009Z,100835.12
2018-05-04T03:36:39.783Z,100840.80
2018-05-04T03:37:45.539Z,100839.36
2018-05-04T03:38:52.057Z,100841.92
2018-05-04T03:39:57.843Z,100848.00
2018-05-04T03:41:03.599Z,100848.40
2018-05-04T03:42:10.120Z,100848.30
2018-05-04T03:43:15.879Z,100844.03
2018-05-04T03:44:21.635Z,100843.97
2018-05-04T03:45:27.419Z,100840.35
2018-05-04T03:46:32.937Z,100846.10
2018-05-04T03:47:38.736Z,100838.48
2018-05-04T03:48:44.495Z,100845.94
2018-05-04T03:49:51.795Z,100847.62
2018-05-04T03:50:58.568Z,100848.41
2018-05-04T03:52:04.374Z,100849.69
2018-05-04T03:53:10.310Z,100853.23
2018-05-04T03:54:16.075Z,100851.98
2018-05-04T03:55:21.838Z,100857.64
2018-05-04T03:56:27.625Z,100853.60
2018-05-04T03:57:50.335Z,100853.11
2018-05-04T03:59:12.694Z,100854.98
2018-05-04T04:00:35.207Z,100858.00
2018-05-04T04:01:57.965Z,100856.33
2018-05-04T04:03:20.818Z,100857.64
2018-05-04T04:04:26.603Z,100856.72
2018-05-04T04:05:32.367Z,100852.65
2018-05-04T04:06:38.123Z,100847.36
2018-05-04T04:07:43.911Z,100850.77
2018-05-04T04:08:50.448Z,100849.80
2018-05-04T04:09:56.443Z,100851.86
2018-05-04T04:11:02.555Z,100854.89
2018-05-04T04:12:08.323Z,100850.55
2018-05-04T04:13:14.877Z,100851.86
2018-05-04T04:14:21.399Z,100851.41
2018-05-04T04:15:27.159Z,100853.94
2018-05-04T04:16:32.951Z,100846.77
2018-05-04T04:17:38.704Z,100857.22
2018-05-04T04:18:44.578Z,100851.80
2018-05-04T04:19:50.327Z,100850.87
2018-05-04T04:20:56.848Z,100853.05
2018-05-04T04:22:02.627Z,100850.81
2018-05-04T04:23:09.151Z,100848.15
2018-05-04T04:24:14.974Z,100855.67
2018-05-04T04:25:20.731Z,100850.06
2018-05-04T04:26:26.493Z,100855.97
2018-05-04T04:27:32.272Z,100853.34
2018-05-04T04:28:38.787Z,100865.54
2018-05-04T04:29:44.570Z,100860.25
2018-05-04T04:30:51.099Z,100864.69
2018-05-04T04:31:57.238Z,100863.73
2018-05-04T04:33:03.038Z,100863.23
2018-05-04T04:34:09.148Z,100869.75
2018-05-04T04:35:14.939Z,100868.04
2018-05-04T04:36:20.468Z,100869.61
2018-05-04T04:37:27.000Z,100872.08
2018-05-04T04:38:32.775Z,100866.72
2018-05-04T04:39:38.532Z,100867.55
2018-05-04T04:40:44.311Z,100867.44
2018-05-04T04:41:49.784Z,100868.27
2018-05-04T04:42:56.310Z,100866.84
2018-05-04T04:44:02.070Z,100869.12
2018-05-04T04:45:08.603Z,100863.40
2018-05-04T04:46:14.380Z,100864.71
2018-05-04T04:47:20.899Z,100868.95
2018-05-04T04:48:26.650Z,100869.24
2018-05-04T04:49:32.426Z,100867.50
2018-05-04T04:50:38.952Z,100867.30
2018-05-04T04:51:44.831Z,100864.08
2018-05-04T04:52:50.704Z,100866.67
2018-05-04T04:53:56.459Z,100865.85
2018-05-04T04:55:02.235Z,100862.77
2018-05-04T04:56:09.508Z,100864.67
2018-05-04T04:57:15.291Z,100864.73
2018-05-04T04:58:21.052Z,100865.99
2018-05-04T04:59:26.824Z,100857.77
2018-05-04T05:00:32.589Z,100869.19
2018-05-04T05:01:38.458Z,100871.16
2018-05-04T05:02:45.036Z,100864.48
2018-05-04T05:03:50.791Z,100874.61
2018-05-04T05:04:56.543Z,100878.13
2018-05-04T05:06:02.311Z,100883.88
2018-05-04T05:07:09.578Z,100875.14
2018-05-04T05:08:15.355Z,100884.84
2018-05-04T05:09:21.977Z,100885.23
2018-05-04T05:10:27.747Z,100890.88
2018-05-04T05:11:34.637Z,100894.37
2018-05-04T05:12:41.160Z,100895.26
2018-05-04T05:13:46.938Z,100899.96
2018-05-04T05:14:52.691Z,100894.70
2018-05-04T05:15:58.457Z,100889.90
2018-05-04T05:17:04.308Z,100902.63
2018-05-04T05:18:10.072Z,100902.59
2018-05-04T05:19:16.155Z,100901.64
2018-05-04T05:20:21.911Z,100900.68
2018-05-04T05:21:27.672Z,100898.09
2018-05-04T05:22:34.630Z,100902.72
2018-05-04T05:23:40.469Z,100897.20
2018-05-04T05:24:46.716Z,100905.05
2018-05-04T05:25:52.498Z,100903.70
2018-05-04T05:26:58.245Z,100904.98
2018-05-04T05:28:03.792Z,100905.45
2018-05-04T05:29:09.543Z,100906.27
2018-05-04T05:30:16.100Z,100905.75
2018-05-04T05:31:22.176Z,100898.54
2018-05-04T05:32:27.958Z,100901.01
2018-05-04T05:33:33.722Z,100901.52
2018-05-04T05:34:41.036Z,100902.97
2018-05-04T05:35:47.974Z,100901.81
2018-05-04T05:36:53.726Z,100911.75
2018-05-04T05:38:00.275Z,100909.52
2018-05-04T05:39:08.460Z,100907.69
2018-05-04T05:40:14.221Z,100905.84
2018-05-04T05:41:20.030Z,100910.17
2018-05-04T05:42:26.158Z,100909.33
2018-05-04T05:43:32.064Z,100909.42
2018-05-04T05:44:38.584Z,100917.10
2018-05-04T05:45:45.104Z,100909.81
2018-05-04T05:46:50.891Z,100907.33
2018-05-04T05:47:56.225Z,100911.41
2018-05-04T05:49:01.972Z,100911.45
2018-05-04T05:50:07.760Z,100913.40
2018-05-04T05:51:13.524Z,100914.25
2018-05-04T05:52:19.070Z,100912.04
2018-05-04T05:53:25.511Z,100914.56
2018-05-04T05:54:31.331Z,100918.05
2018-05-04T05:55:37.267Z,100923.60
2018-05-04T05:56:43.795Z,100927.52
2018-05-04T05:57:49.574Z,100928.52
2018-05-04T05:58:56.883Z,100927.44
2018-05-04T06:00:02.662Z,100930.22
2018-05-04T06:01:08.420Z,100929.14
2018-05-04T06:02:14.175Z,100927.27
2018-05-04T06:03:20.722Z,100927.01
2018-05-04T06:04:26.475Z,100924.49
2018-05-04T06:05:33.005Z,100924.53
2018-05-04T06:06:38.772Z,100922.28
2018-05-04T06:07:44.617Z,100921.20
2018-05-04T06:08:51.175Z,100923.56
2018-05-04T06:09:56.936Z,100924.53
2018-05-04T06:11:03.048Z,100925.08
2018-05-04T06:12:09.354Z,100924.38
2018-05-04T06:13:15.127Z,100924.47
2018-05-04T06:14:20.916Z,100926.72
2018-05-04T06:15:27.443Z,100933.55
2018-05-04T06:16:33.204Z,100930.05
2018-05-04T06:17:39.932Z,100933.55
2018-05-04T06:18:45.700Z,100935.02
2018-05-04T06:19:51.580Z,100933.89
2018-05-04T06:20:57.390Z,100935.36
2018-05-04T06:22:03.153Z,100936.09
2018-05-04T06:23:09.676Z,100934.69
2018-05-04T06:24:15.235Z,100940.16
2018-05-04T06:25:21.781Z,100935.91
2018-05-04T06:26:27.542Z,100934.16
2018-05-04T06:27:33.866Z,100931.70
2018-05-04T06:28:39.640Z,100932.13
2018-05-04T06:29:45.399Z,100935.80
2018-05-04T06:30:51.181Z,100932.93
2018-05-04T06:31:56.935Z,100939.78
2018-05-04T06:33:02.705Z,100937.88
2018-05-04T06:34:09.239Z,100936.48
2018-05-04T06:35:15.037Z,100931.72
2018-05-04T06:36:20.613Z,100943.06
2018-05-04T06:37:26.371Z,100942.50
2018-05-04T06:38:32.127Z,100944.25
2018-05-04T06:39:38.868Z,100938.17
2018-05-04T06:40:44.835Z,100934.20
2018-05-04T06:41:51.384Z,100937.78
2018-05-04T06:42:56.975Z,100936.83
2018-05-04T06:44:02.795Z,100935.81
2018-05-04T06:45:09.368Z,100942.89
2018-05-04T06:46:15.252Z,100944.61
2018-05-04T06:47:21.116Z,100938.82
2018-05-04T06:48:27.875Z,100944.22
2018-05-04T06:49:34.312Z,100935.48
2018-05-04T06:50:40.381Z,100936.39
2018-05-04T06:51:47.361Z,100938.13
2018-05-04T06:52:54.071Z,100943.88
2018-05-04T06:54:02.149Z,100944.71
2018-05-04T06:55:08.116Z,100939.63
2018-05-04T06:56:16.140Z,100943.77
2018-05-04T06:57:22.781Z,100946.67
2018-05-04T06:58:28.802Z,100946.50
2018-05-04T06:59:34.647Z,100942.59
2018-05-04T07:00:40.431Z,100949.03
2018-05-04T07:01:46.198Z,100948.01
2018-05-04T07:02:51.958Z,100943.97
2018-05-04T07:03:58.650Z,100947.03
2018-05-04T07:05:04.550Z,100948.56
2018-05-04T07:06:11.237Z,100948.41
2018-05-04T07:07:17.002Z,100950.62
2018-05-04T07:08:22.930Z,100948.02
2018-05-04T07:09:28.717Z,100954.27
2018-05-04T07:10:34.463Z,100950.13
2018-05-04T07:11:40.209Z,100949.11
2018-05-04T07:12:45.963Z,100952.52
2018-05-04T07:13:51.720Z,100953.02
2018-05-04T07:14:58.316Z,100951.84
2018-05-04T07:16:05.003Z,100947.89
2018-05-04T07:17:10.775Z,100947.16
2018-05-04T07:18:17.299Z,100949.79
2018-05-04T07:19:23.055Z,100954.55
2018-05-04T07:20:28.834Z,100952.13
2018-05-04T07:21:35.387Z,100951.52
2018-05-04T07:22:42.132Z,100948.38
2018-05-04T07:23:47.892Z,100953.48
2018-05-04T07:24:54.416Z,100954.16
2018-05-04T07:26:00.239Z,100951.56
2018-05-04T07:27:05.435Z,100952.94
2018-05-04T07:28:11.198Z,100951.64
2018-05-04T07:29:16.961Z,100950.39
2018-05-04T07:30:22.727Z,100952.91
2018-05-04T07:31:28.524Z,100954.77
2018-05-04T07:32:34.339Z,100954.58
2018-05-04T07:33:40.666Z,100951.08
2018-05-04T07:34:46.440Z,100954.77
2018-05-04T07:35:52.966Z,100960.38
2018-05-04T07:36:58.751Z,100956.84
2018-05-04T07:38:06.811Z,100959.73
2018-05-04T07:39:12.572Z,100957.42
2018-05-04T07:40:19.090Z,100963.64
2018-05-04T07:41:24.847Z,100963.17
2018-05-04T07:42:30.631Z,100956.76
2018-05-04T07:43:36.402Z,100955.12
2018-05-04T07:44:42.157Z,100954.91
2018-05-04T07:45:47.925Z,100950.85
2018-05-04T07:46:53.214Z,100948.71
2018-05-04T07:47:59.026Z,100954.67
2018-05-04T07:49:04.564Z,100952.12
2018-05-04T07:50:10.327Z,100959.19
2018-05-04T07:51:16.098Z,100959.16
2018-05-04T07:52:22.166Z,100959.03
2018-05-04T07:53:27.967Z,100950.70
2018-05-04T07:54:35.978Z,100949.55
2018-05-04T07:55:41.761Z,100950.78
2018-05-04T07:56:48.641Z,100956.83
2018-05-04T07:57:54.484Z,100952.55
2018-05-04T07:59:00.806Z,100953.95
2018-05-04T08:00:07.879Z,100953.36
2018-05-04T08:01:13.674Z,100954.84
2018-05-04T08:02:19.500Z,100952.73
2018-05-04T08:03:25.259Z,100956.73
2018-05-04T08:04:31.053Z,100958.32
2018-05-04T08:05:36.804Z,100955.16
2018-05-04T08:06:43.333Z,100951.27
2018-05-04T08:07:49.091Z,100953.00
2018-05-04T08:08:55.229Z,100957.77
2018-05-04T08:10:01.004Z,100953.16
2018-05-04T08:11:07.532Z,100953.47
2018-05-04T08:12:13.317Z,100948.93
2018-05-04T08:13:19.075Z,100950.11
2018-05-04T08:14:24.820Z,100941.84
2018-05-04T08:15:30.254Z,100947.93
2018-05-04T08:16:35.675Z,100950.98
2018-05-04T08:17:41.428Z,100952.83
2018-05-04T08:18:47.170Z,100949.91
2018-05-04T08:19:52.922Z,100948.58
2018-05-04T08:20:58.695Z,100951.27
2018-05-04T08:22:04.455Z,100950.00
2018-05-04T08:23:10.973Z,100956.52
2018-05-04T08:24:16.721Z,100954.56
2018-05-04T08:25:22.476Z,100957.75
2018-05-04T08:26:28.242Z,100960.55
2018-05-04T08:27:34.544Z,100950.96
2018-05-04T08:28:40.298Z,100956.22
2018-05-04T08:29:46.058Z,100954.88
2018-05-04T08:30:51.472Z,100956.83
2018-05-04T08:31:57.267Z,100948.20
2018-05-04T08:33:03.779Z,100952.05
2018-05-04T08:34:09.536Z,100956.11
2018-05-04T08:35:15.294Z,100951.20
2018-05-04T08:36:21.239Z,100951.75
2018-05-04T08:37:28.024Z,100959.02
2018-05-04T08:38:33.771Z,100970.88
2018-05-04T08:39:39.531Z,100966.84
2018-05-04T08:40:45.357Z,100961.53
2018-05-04T08:41:51.329Z,100962.88
2018-05-04T08:42:57.142Z,100957.03
2018-05-04T08:44:05.356Z,100964.70
2018-05-04T08:45:11.118Z,100969.39
2018-05-04T08:46:16.887Z,100959.14
2018-05-04T08:47:22.649Z,100958.42
2018-05-04T08:48:29.194Z,100956.80
2018-05-04T08:49:34.945Z,100958.69
2018-05-04T08:50:41.460Z,100956.38
2018-05-04T08:51:47.207Z,100955.63
2018-05-04T08:52:52.952Z,100965.75
2018-05-04T08:53:58.729Z,100963.16
2018-05-04T08:55:05.007Z,100953.13
2018-05-04T08:56:10.765Z,100954.64
2018-05-04T08:57:16.607Z,100962.78
2018-05-04T08:58:22.513Z,100954.80
2018-05-04T08:59:28.282Z,100958.41
2018-05-04T09:00:34.044Z,100954.27
2018-05-04T09:01:39.796Z,100951.56
2018-05-04T09:02:45.547Z,100958.03
2018-05-04T09:03:51.330Z,100955.00
2018-05-04T09:04:57.872Z,100960.62
2018-05-04T09:06:03.624Z,100958.17
2018-05-04T09:07:10.139Z,100949.40
2018-05-04T09:08:15.901Z,100951.40
2018-05-04T09:09:21.651Z,100945.29
2018-05-04T09:10:27.421Z,100946.83
2018-05-04T09:11:33.939Z,100947.67
2018-05-04T09:12:39.797Z,100948.11
2018-05-04T09:13:46.481Z,100949.05
2018-05-04T09:14:52.992Z,100947.52
2018-05-04T09:15:58.779Z,100952.88
2018-05-04T09:17:05.299Z,100947.83
2018-05-04T09:18:11.056Z,100955.45
2018-05-04T09:19:16.807Z,100947.92
2018-05-04T09:20:22.555Z,100954.85
2018-05-04T09:21:28.333Z,100947.50
2018-05-04T09:22:34.076Z,100945.27
2018-05-04T09:23:39.830Z,100949.33
2018-05-04T09:24:45.588Z,100946.78
2018-05-04T09:25:51.331Z,100959.92
2018-05-04T09:26:57.106Z,100946.89
2018-05-04T09:28:02.850Z,100955.19
2018-05-04T09:29:09.372Z,100949.45
2018-05-04T09:30:15.126Z,100954.16
2018-05-04T09:31:21.647Z,100946.80
2018-05-04T09:32:27.432Z,100944.77
2018-05-04T09:33:33.191Z,100943.36
2018-05-04T09:34:39.716Z,100942.69
2018-05-04T09:35:45.687Z,100944.94
2018-05-04T09:36:51.435Z,100944.58
2018-05-04T09:37:57.635Z,100942.98
2018-05-04T09:39:03.403Z,100945.78
2018-05-04T09:40:09.167Z,100942.89
2018-05-04T09:41:16.414Z,100945.51
2018-05-04T09:42:22.159Z,100944.54
2018-05-04T09:43:28.260Z,100943.77
2018-05-04T09:44:34.464Z,100943.13
2018-05-04T09:45:40.231Z,100942.49
2018-05-04T09:46:45.980Z,100944.75
2018-05-04T09:47:52.499Z,100943.22
2018-05-04T09:48:58.286Z,100941.59
2018-05-04T09:50:05.002Z,100944.59
2018-05-04T09:51:10.763Z,100940.91
2018-05-04T09:52:16.519Z,100943.74
2018-05-04T09:53:22.259Z,100939.19
2018-05-04T09:54:28.035Z,100944.02
2018-05-04T09:55:33.798Z,100939.55
2018-05-04T09:56:39.551Z,100936.84
2018-05-04T09:57:45.309Z,100937.86
2018-05-04T09:58:51.059Z,100933.09
2018-05-04T09:59:56.853Z,100937.48
2018-05-04T10:01:02.606Z,100933.62
2018-05-04T10:02:08.376Z,100928.67
2018-05-04T10:03:14.238Z,100940.00
2018-05-04T10:04:20.009Z,100933.55
2018-05-04T10:05:26.562Z,100932.19
2018-05-04T10:06:33.080Z,100944.08
2018-05-04T10:07:38.838Z,100946.92
2018-05-04T10:08:44.600Z,100943.88
2018-05-04T10:09:51.123Z,100945.99
2018-05-04T10:10:56.914Z,100948.17
2018-05-04T10:12:02.718Z,100941.50
2018-05-04T10:13:08.483Z,100938.19
2018-05-04T10:14:15.037Z,100937.75
2018-05-04T10:15:21.559Z,100933.52
2018-05-04T10:16:27.375Z,100931.34
2018-05-04T10:17:33.135Z,100938.44
2018-05-04T10:18:38.892Z,100928.98
2018-05-04T10:19:45.122Z,100930.59
2018-05-04T10:20:52.716Z,100933.03
2018-05-04T10:21:58.622Z,100930.01
2018-05-04T10:23:04.628Z,100926.70
2018-05-04T10:24:10.517Z,100927.25
2018-05-04T10:25:16.325Z,100922.80
2018-05-04T10:26:22.242Z,100921.48
2018-05-04T10:27:28.251Z,100927.82
2018-05-04T10:28:34.039Z,100931.23
2018-05-04T10:29:39.864Z,100929.26
2018-05-04T10:30:45.760Z,100916.61
2018-05-04T10:31:51.452Z,100919.42
2018-05-04T10:32:57.280Z,100916.22
2018-05-04T10:34:03.880Z,100909.41
2018-05-04T10:35:09.702Z,100906.56
2018-05-04T10:36:15.529Z,100913.53
2018-05-04T10:37:22.106Z,100907.66
2018-05-04T10:38:27.989Z,100911.03
2018-05-04T10:39:33.970Z,100910.86
2018-05-04T10:40:39.788Z,100914.31
2018-05-04T10:41:45.588Z,100918.97
2018-05-04T10:42:51.401Z,100914.66
2018-05-04T10:43:57.946Z,100907.71
2018-05-04T10:45:04.146Z,100925.01
2018-05-04T10:46:10.087Z,100925.16
2018-05-04T10:47:16.079Z,100919.09
2018-05-04T10:48:22.282Z,100924.81
2018-05-04T10:49:28.087Z,100921.81
2018-05-04T10:50:34.372Z,100931.51
2018-05-04T10:51:40.169Z,100919.55
2018-05-04T10:52:45.932Z,100915.14
2018-05-04T10:53:53.197Z,100917.23
2018-05-04T10:54:58.979Z,100914.34
2018-05-04T10:56:04.511Z,100925.27
2018-05-04T10:57:10.038Z,100918.98
2018-05-04T10:58:16.449Z,100912.23
2018-05-04T10:59:22.320Z,100922.50
2018-05-04T11:00:28.104Z,100923.59
2018-05-04T11:01:34.093Z,100917.83
2018-05-04T11:02:39.853Z,100926.84
2018-05-04T11:03:45.627Z,100932.25
2018-05-04T11:04:51.381Z,100925.47
2018-05-04T11:05:57.177Z,100921.64
2018-05-04T11:07:02.931Z,100933.39
2018-05-04T11:08:09.529Z,100929.93
2018-05-04T11:09:15.424Z,100929.09
2018-05-04T11:10:21.346Z,100925.42
2018-05-04T11:11:27.212Z,100929.06
2018-05-04T11:12:32.847Z,100924.69
2018-05-04T11:13:40.173Z,100926.21
2018-05-04T11:14:45.919Z,100926.76
2018-05-04T11:15:51.679Z,100913.23
2018-05-04T11:16:57.708Z,100921.80
2018-05-04T11:18:06.628Z,100921.19
2018-05-04T11:19:12.456Z,100914.06
2018-05-04T11:20:18.311Z,100920.79
2018-05-04T11:21:24.317Z,100921.84
2018-05-04T11:22:31.179Z,100925.30
2018-05-04T11:23:37.406Z,100923.55
2018-05-04T11:24:44.153Z,100916.06
2018-05-04T11:25:50.138Z,100917.91
2018-05-04T11:26:56.870Z,100916.77
2018-05-04T11:28:03.102Z,100911.52
2018-05-04T11:29:09.434Z,100919.59
2018-05-04T11:30:15.911Z,100914.53
2018-05-04T11:31:22.231Z,100918.78
2018-05-04T11:32:28.535Z,100924.63
2018-05-04T11:33:34.380Z,100916.27
2018-05-04T11:34:40.244Z,100921.06
2018-05-04T11:35:46.094Z,100914.15
2018-05-04T11:36:51.976Z,100922.14
2018-05-04T11:37:57.800Z,100915.54
2018-05-04T11:39:03.480Z,100913.14
2018-05-04T11:40:09.551Z,100919.59
2018-05-04T11:41:15.397Z,100920.51
2018-05-04T11:42:21.177Z,100920.63
2018-05-04T11:43:27.592Z,100911.73
2018-05-04T11:44:33.428Z,100909.62
2018-05-04T11:45:39.286Z,100912.25
2018-05-04T11:46:45.153Z,100910.38
2018-05-04T11:47:52.593Z,100914.14
2018-05-04T11:48:58.403Z,100913.81
2018-05-04T11:50:04.711Z,100912.76
2018-05-04T11:51:10.552Z,100913.51
2018-05-04T11:52:18.206Z,100916.06
2018-05-04T11:53:24.061Z,100913.19
2018-05-04T11:54:29.886Z,100921.16
2018-05-04T11:55:36.600Z,100921.05
2018-05-04T11:56:42.372Z,100917.70
2018-05-04T11:57:48.146Z,100914.86
2018-05-04T11:58:53.952Z,100910.94
2018-05-04T11:59:59.731Z,100908.22
2018-05-04T12:01:05.884Z,100908.25
2018-05-04T12:02:11.649Z,100916.88
2018-05-04T12:03:17.558Z,100920.48
2018-05-04T12:04:23.309Z,100910.20
2018-05-04T12:05:29.084Z,100907.97
2018-05-04T12:06:34.887Z,100909.58
2018-05-04T12:07:40.639Z,100908.14
2018-05-04T12:08:46.401Z,100906.62
2018-05-04T12:09:52.167Z,100905.18
2018-05-04T12:10:57.915Z,100912.17
2018-05-04T12:12:03.713Z,100908.64
2018-05-04T12:13:09.075Z,100906.50
2018-05-04T12:14:14.871Z,100917.28
2018-05-04T12:15:20.624Z,100908.20
2018-05-04T12:16:26.372Z,100909.05
2018-05-04T12:17:32.170Z,100906.73
2018-05-04T12:18:38.702Z,100908.77
2018-05-04T12:19:44.451Z,100909.61
2018-05-04T12:20:50.220Z,100908.02
2018-05-04T12:21:56.748Z,100911.34
2018-05-04T12:23:03.304Z,100908.56
2018-05-04T12:24:09.061Z,100911.73
2018-05-04T12:25:14.825Z,100909.27
2018-05-04T12:26:21.343Z,100909.69
2018-05-04T12:27:27.109Z,100903.99
2018-05-04T12:28:33.594Z,100904.24
2018-05-04T12:29:39.355Z,100908.47
2018-05-04T12:30:45.112Z,100904.39
2018-05-04T12:31:50.543Z,100910.06
2018-05-04T12:32:56.072Z,100907.80
2018-05-04T12:34:01.881Z,100904.75
2018-05-04T12:35:08.426Z,100899.59